Time;durP1;ratioP1;P1;durP2;ratioP2;P2;SDS_P1;SDS_P2;PMS_P1;PMS_P2;Temp;Humidity;BMP_temperature;BMP_pressure;BME280_temperature;BME280_humidity;BME280_pressure;Samples;Min_cycle;Max_cycle;Signal;HPM_P1;HPM_P2
2021/01/05 00:01:55;;;;;;;;;;;;;;;-0.67;100.00;98973.72;5045951;28;20335;-84
2021/01/05 00:04:20;;;;;;;;;;;;;;;-0.66;100.00;98973.75;5033692;28;19911;-85
2021/01/05 00:06:45;;;;;;;;;;;;;;;-0.61;100.00;98972.97;5032327;28;20355;-83
2021/01/05 00:09:10;;;;;;;;;;;;;;;-0.69;100.00;98970.31;5033787;28;19966;-85
2021/01/05 00:11:53;;;;;;;;;;;;;;;-0.67;100.00;98969.50;5034693;28;19946;-84
2021/01/05 00:14:18;;;;;;;;;;;;;;;-0.83;100.00;98975.22;5039733;28;19963;-84
2021/01/05 00:16:44;;;;;;;;;;;;;;;-0.74;100.00;98977.00;5033832;28;19912;-85
2021/01/05 00:19:09;;;;;;;;;;;;;;;-0.73;100.00;98973.63;5044633;28;19912;-84
2021/01/05 00:21:34;;;;;;;;;;;;;;;-0.39;100.00;98966.47;5031147;28;19925;-85
2021/01/05 00:24:00;;;;;;;;;;;;;;;-0.61;100.00;98967.91;5029885;28;19912;-85
2021/01/05 00:26:25;;;;;;;;;;;;;;;-0.53;100.00;98971.38;5026136;28;19908;-84
2021/01/05 00:28:50;;;;;;;;;;;;;;;-0.55;100.00;98968.81;5022657;28;20538;-85
2021/01/05 00:31:16;;;;;;;;;;;;;;;-0.57;100.00;98970.50;5029241;28;19908;-84
2021/01/05 00:33:41;;;;;;;;;;;;;;;-0.63;100.00;98976.31;5036962;28;19905;-85
2021/01/05 00:36:06;;;;;;;;;;;;;;;-0.49;100.00;98973.94;5039166;28;19908;-84
2021/01/05 00:38:32;;;;;;;;;;;;;;;-0.71;100.00;98971.97;5029754;28;19966;-84
2021/01/05 00:40:57;;;;;;;;;;;;;;;-0.64;100.00;98969.56;5029382;28;19916;-85
2021/01/05 00:43:22;;;;;;;;;;;;;;;-0.51;100.00;98970.56;5022680;28;19908;-85
2021/01/05 00:45:48;;;;;;;;;;;;;;;-0.47;100.00;98972.28;5024422;28;20338;-85
2021/01/05 00:48:13;;;;;;;;;;;;;;;-0.62;100.00;98972.09;5029615;28;21029;-85
2021/01/05 00:50:38;;;;;;;;;;;;;;;-0.65;100.00;98974.59;5031337;28;20626;-84
2021/01/05 00:53:04;;;;;;;;;;;;;;;-0.62;100.00;98972.09;5029932;28;20649;-84
2021/01/05 00:55:29;;;;;;;;;;;;;;;-0.70;100.00;98969.47;5028947;28;19908;-84
2021/01/05 00:57:54;;;;;;;;;;;;;;;-0.68;100.00;98972.88;5024315;28;19915;-84
2021/01/05 01:00:21;;;;;;;;;;;;;;;-0.62;100.00;98972.09;5028677;28;19917;-85
2021/01/05 01:02:47;;;;;;;;;;;;;;;-0.49;100.00;98979.00;5025552;28;19916;-85
2021/01/05 01:05:12;;;;;;;;;;;;;;;-0.51;100.00;98978.13;5030893;28;20288;-85
2021/01/05 01:07:38;;;;;;;;;;;;;;;-0.46;100.00;98979.06;5026296;28;19908;-85
2021/01/05 01:10:04;;;;;;;;;;;;;;;-0.65;100.00;98977.13;5025464;28;20874;-85
2021/01/05 01:12:29;;;;;;;;;;;;;;;-0.49;100.00;98973.94;5030949;28;19942;-84
2021/01/05 01:14:55;;;;;;;;;;;;;;;-0.63;100.00;98970.41;5042167;28;19916;-85
2021/01/05 01:17:21;;;;;;;;;;;;;;;-0.58;100.00;98965.41;5033406;28;20034;-84
2021/01/05 01:19:46;;;;;;;;;;;;;;;-0.59;100.00;98969.63;5041325;28;19930;-84
2021/01/05 01:22:12;;;;;;;;;;;;;;;-0.66;100.00;98972.91;5033618;28;20366;-84
2021/01/05 01:24:37;;;;;;;;;;;;;;;-0.49;100.00;98973.94;5034052;28;20313;-85
2021/01/05 01:27:02;;;;;;;;;;;;;;;-0.58;100.00;98976.38;5030056;28;19904;-83
2021/01/05 01:29:28;;;;;;;;;;;;;;;-0.53;100.00;98979.78;5024925;28;19908;-85
2021/01/05 01:31:54;;;;;;;;;;;;;;;-0.75;100.00;98970.25;5032374;28;19935;-83
2021/01/05 01:34:20;;;;;;;;;;;;;;;-0.60;100.00;98967.91;5032871;28;19904;-85
2021/01/05 01:36:55;;;;;;;;;;;;;;;-0.69;100.00;98970.31;5031946;28;20273;-85
2021/01/05 01:39:20;;;;;;;;;;;;;;;-0.55;100.00;98973.03;5042181;28;19951;-85
2021/01/05 01:41:45;;;;;;;;;;;;;;;-0.54;100.00;98975.59;5032243;28;19967;-85
2021/01/05 01:44:16;;;;;;;;;;;;;;;-0.58;100.00;98973.84;5022840;28;19999;-84
2021/01/05 01:46:41;;;;;;;;;;;;;;;-0.67;100.00;98972.03;5041441;28;19944;-85
2021/01/05 01:49:06;;;;;;;;;;;;;;;-0.61;100.00;98968.75;5031348;28;19943;-84
2021/01/05 01:51:31;;;;;;;;;;;;;;;-0.49;100.00;98968.03;5033629;28;19999;-84
2021/01/05 01:54:20;;;;;;;;;;;;;;;-0.51;100.00;98967.19;5028383;28;19987;-83
2021/01/05 01:56:51;;;;;;;;;;;;;;;-0.64;100.00;98971.22;5012115;28;19913;-85
2021/01/05 01:59:37;;;;;;;;;;;;;;;-0.55;100.00;98973.88;5048473;28;20014;-84
2021/01/05 02:02:08;;;;;;;;;;;;;;;-0.54;100.00;98974.75;5036884;28;20539;-84
2021/01/05 02:04:33;;;;;;;;;;;;;;;-0.46;100.00;98974.00;5039834;28;19908;-85
2021/01/05 02:07:17;;;;;;;;;;;;;;;-0.45;100.00;98973.16;5059716;28;20285;-84
2021/01/05 02:10:01;;;;;;;;;;;;;;;-0.67;100.00;98981.31;5035301;28;19904;-85
2021/01/05 02:12:30;;;;;;;;;;;;;;;-0.46;100.00;98974.00;5044619;28;19997;-84
2021/01/05 02:15:08;;;;;;;;;;;;;;;-0.61;100.00;98978.03;5044351;28;19916;-85
2021/01/05 02:17:33;;;;;;;;;;;;;;;-0.35;100.00;98970.72;5067137;28;20293;-85
2021/01/05 02:20:04;;;;;;;;;;;;;;;-0.40;100.00;98978.28;5046354;28;19908;-85
2021/01/05 02:22:47;;;;;;;;;;;;;;;-0.57;100.00;98984.78;5025176;28;19931;-85
2021/01/05 02:25:22;;;;;;;;;;;;;;;-0.58;100.00;98978.91;5031922;28;19905;-85
2021/01/05 02:28:00;;;;;;;;;;;;;;;-0.61;100.00;98971.28;5040401;28;19912;-85
2021/01/05 02:30:27;;;;;;;;;;;;;;;-0.60;100.00;98970.44;5031738;28;19904;-85
2021/01/05 02:32:55;;;;;;;;;;;;;;;-0.63;100.00;98975.47;5049734;28;19912;-84
2021/01/05 02:35:24;;;;;;;;;;;;;;;-0.59;100.00;98973.81;5046541;28;20010;-84
2021/01/05 02:37:59;;;;;;;;;;;;;;;-0.68;100.00;98977.94;5047002;28;19913;-85
2021/01/05 02:40:30;;;;;;;;;;;;;;;-0.51;100.00;98980.66;5027311;28;19908;-84
2021/01/05 02:43:05;;;;;;;;;;;;;;;-0.48;100.00;98973.13;5045801;28;19916;-84
2021/01/05 02:45:46;;;;;;;;;;;;;;;-0.59;100.00;98976.34;5046968;28;19919;-85
2021/01/05 02:48:14;;;;;;;;;;;;;;;-0.63;100.00;98980.53;5037652;28;19913;-84
2021/01/05 02:50:58;;;;;;;;;;;;;;;-0.47;100.00;98979.88;5060534;28;19920;-85
2021/01/05 02:53:47;;;;;;;;;;;;;;;-0.71;100.00;98974.50;5065414;28;19916;-84
2021/01/05 02:56:27;;;;;;;;;;;;;;;-0.74;100.00;98972.81;5016102;28;19930;-85
2021/01/05 02:58:55;;;;;;;;;;;;;;;-0.42;100.00;98970.66;5040051;28;19908;-85
2021/01/05 03:01:27;;;;;;;;;;;;;;;-0.52;100.00;98971.41;5034704;28;19916;-85
2021/01/05 03:03:52;;;;;;;;;;;;;;;-0.62;100.00;98967.03;5050696;28;19915;-85
2021/01/05 03:06:29;;;;;;;;;;;;;;;-0.37;100.00;98967.34;5027336;28;20521;-85
2021/01/05 03:09:06;;;;;;;;;;;;;;;-0.70;100.00;98973.69;5016638;28;20007;-85
2021/01/05 03:11:40;;;;;;;;;;;;;;;-0.73;100.00;98971.97;5034968;28;20585;-85
2021/01/05 03:14:14;;;;;;;;;;;;;;;-0.58;100.00;98975.53;5043851;28;19956;-83
2021/01/05 03:16:42;;;;;;;;;;;;;;;-0.53;100.00;98972.22;5028460;28;19920;-84
2021/01/05 03:19:26;;;;;;;;;;;;;;;-0.69;100.00;98972.84;5034526;28;19910;-85
2021/01/05 03:21:53;;;;;;;;;;;;;;;-0.49;100.00;98973.94;5043601;28;20432;-84
2021/01/05 03:24:18;;;;;;;;;;;;;;;-0.49;100.00;98963.81;5032912;28;19908;-84
2021/01/05 03:26:44;;;;;;;;;;;;;;;-0.56;100.00;98971.34;5047267;28;19908;-85
2021/01/05 03:29:10;;;;;;;;;;;;;;;-0.60;100.00;98969.59;5025854;28;19952;-85
2021/01/05 03:31:37;;;;;;;;;;;;;;;-0.60;100.00;98972.13;5023521;28;20074;-84
2021/01/05 03:34:03;;;;;;;;;;;;;;;-0.54;100.00;98975.59;5026607;28;19908;-84
2021/01/05 03:36:29;;;;;;;;;;;;;;;-0.64;100.00;98974.63;5034329;28;19919;-84
2021/01/05 03:38:54;;;;;;;;;;;;;;;-0.59;100.00;98972.16;5032483;28;19912;-84
2021/01/05 03:41:19;;;;;;;;;;;;;;;-0.56;100.00;98976.41;5034582;28;19916;-85
2021/01/05 03:43:45;;;;;;;;;;;;;;;-0.57;100.00;98974.69;5044891;28;19954;-85
2021/01/05 03:46:11;;;;;;;;;;;;;;;-0.68;100.00;98970.34;5034246;28;19962;-84
2021/01/05 03:48:36;;;;;;;;;;;;;;;-0.52;100.00;98968.88;5038366;28;20146;-85
2021/01/05 03:51:01;;;;;;;;;;;;;;;-0.56;100.00;98971.34;5044374;28;20393;-84
2021/01/05 03:53:27;;;;;;;;;;;;;;;-0.38;100.00;98968.19;5032337;28;20407;-84
2021/01/05 03:55:54;;;;;;;;;;;;;;;-0.60;100.00;98977.19;5023779;28;19909;-85
2021/01/05 03:58:20;;;;;;;;;;;;;;;-0.56;100.00;98969.66;5031387;28;19905;-85
2021/01/05 04:00:45;;;;;;;;;;;;;;;-0.54;100.00;98969.69;5028118;28;19916;-85
2021/01/05 04:03:10;;;;;;;;;;;;;;;-0.66;100.00;98970.38;5024832;28;20353;-85
2021/01/05 04:05:36;;;;;;;;;;;;;;;-0.70;100.00;98973.69;5025878;28;19919;-84
2021/01/05 04:08:01;;;;;;;;;;;;;;;-0.66;100.00;98971.22;5031448;28;19904;-84
2021/01/05 04:10:26;;;;;;;;;;;;;;;-0.53;100.00;98973.91;5027818;28;19908;-84
2021/01/05 04:12:52;;;;;;;;;;;;;;;-0.54;100.00;98969.69;5030780;28;20376;-85
2021/01/05 04:15:19;;;;;;;;;;;;;;;-0.47;100.00;98972.28;5023538;28;19912;-85
2021/01/05 04:17:44;;;;;;;;;;;;;;;-0.43;100.00;98974.03;5011746;28;19908;-84
2021/01/05 04:20:10;;;;;;;;;;;;;;;-0.57;100.00;98969.63;5036621;28;20293;-85
2021/01/05 04:22:35;;;;;;;;;;;;;;;-0.59;100.00;98966.22;5035480;28;20327;-84
2021/01/05 04:25:00;;;;;;;;;;;;;;;-0.66;100.00;98971.22;5025634;28;21337;-85
2021/01/05 04:27:26;;;;;;;;;;;;;;;-0.60;100.00;98974.66;5029939;28;19933;-84
2021/01/05 04:29:52;;;;;;;;;;;;;;;-0.59;100.00;98977.22;5026171;28;19908;-85
2021/01/05 04:32:17;;;;;;;;;;;;;;;-0.60;100.00;98975.50;5032445;28;19977;-84
2021/01/05 04:34:42;;;;;;;;;;;;;;;-0.52;100.00;98973.94;5006116;28;19912;-84
2021/01/05 04:37:08;;;;;;;;;;;;;;;-0.52;100.00;98973.94;5027545;28;19909;-85
2021/01/05 04:39:33;;;;;;;;;;;;;;;-0.63;100.00;98981.38;5037057;28;20161;-85
2021/01/05 04:42:16;;;;;;;;;;;;;;;-0.55;100.00;98980.63;5039142;28;19927;-84
2021/01/05 04:44:46;;;;;;;;;;;;;;;-0.50;100.00;98984.91;5038554;28;19926;-85
2021/01/05 04:47:18;;;;;;;;;;;;;;;-0.57;100.00;98984.78;5037119;28;20361;-85
2021/01/05 04:50:02;;;;;;;;;;;;;;;-0.38;100.00;98976.63;5044121;28;19908;-84
2021/01/05 04:52:30;;;;;;;;;;;;;;;-0.44;100.00;98979.06;5052199;28;19931;-85
2021/01/05 04:54:58;;;;;;;;;;;;;;;-0.27;100.00;98979.28;5029012;28;20062;-85
2021/01/05 04:57:24;;;;;;;;;;;;;;;-0.22;100.00;98973.41;5044173;28;19908;-85
2021/01/05 04:59:58;;;;;;;;;;;;;;;-0.39;100.00;98979.13;5037086;28;21930;-83
2021/01/05 05:02:30;;;;;;;;;;;;;;;-0.36;100.00;98985.06;5045499;28;19939;-83
2021/01/05 05:05:17;;;;;;;;;;;;;;;-0.57;100.00;98985.66;5048557;28;19957;-85
2021/01/05 05:07:53;;;;;;;;;;;;;;;-0.44;100.00;98986.66;5061575;28;19973;-84
2021/01/05 05:10:21;;;;;;;;;;;;;;;-0.61;100.00;98981.41;5045648;28;20017;-86
2021/01/05 05:13:03;;;;;;;;;;;;;;;-0.40;100.00;98983.34;5044165;28;20343;-85
2021/01/05 05:15:36;;;;;;;;;;;;;;;-0.23;100.00;98973.38;5029518;28;19958;-85
2021/01/05 05:18:05;;;;;;;;;;;;;;;-0.45;100.00;98980.75;5041568;28;19908;-85
2021/01/05 05:20:39;;;;;;;;;;;;;;;-0.54;100.00;98980.63;5044235;28;19928;-84
2021/01/05 05:23:23;;;;;;;;;;;;;;;-0.41;100.00;98981.66;5042494;28;20367;-84
2021/01/05 05:25:53;;;;;;;;;;;;;;;-0.42;100.00;98980.78;5035822;28;19904;-84
2021/01/05 05:28:23;;;;;;;;;;;;;;;-0.53;100.00;98984.00;5034276;28;19950;-85
2021/01/05 05:30:48;;;;;;;;;;;;;;;-0.54;100.00;98978.13;5033946;28;19909;-84
2021/01/05 05:33:23;;;;;;;;;;;;;;;-0.46;100.00;98978.19;5050666;28;19905;-84
2021/01/05 05:36:07;;;;;;;;;;;;;;;-0.25;100.00;98975.06;5078984;28;20259;-84
2021/01/05 05:38:48;;;;;;;;;;;;;;;-0.35;100.00;98981.69;5050413;28;19908;-84
2021/01/05 05:41:17;;;;;;;;;;;;;;;-0.38;100.00;98975.78;5079099;28;20006;-84
2021/01/05 05:43:45;;;;;;;;;;;;;;;-0.36;100.00;98974.09;5044500;28;20324;-85
2021/01/05 05:46:20;;;;;;;;;;;;;;;-0.07;100.00;98972.75;5060556;28;19904;-84
2021/01/05 05:48:57;;;;;;;;;;;;;;;-0.40;100.00;98979.97;5061068;28;19904;-84
2021/01/05 05:51:23;;;;;;;;;;;;;;;-0.31;100.00;98977.53;5044645;28;19904;-84
2021/01/05 05:53:50;;;;;;;;;;;;;;;-0.21;100.00;98974.25;5079218;28;19957;-84
2021/01/05 05:56:17;;;;;;;;;;;;;;;-0.08;100.00;98976.09;5044880;28;19943;-83
2021/01/05 05:58:52;;;;;;;;;;;;;;;0.04;100.00;98982.09;5061300;28;19938;-84
2021/01/05 06:01:20;;;;;;;;;;;;;;;-0.03;100.00;98994.69;5061684;28;19916;-83
2021/01/05 06:03:45;;;;;;;;;;;;;;;-0.07;100.00;98985.41;5054665;28;19904;-85
2021/01/05 06:06:10;;;;;;;;;;;;;;;-0.31;100.00;98987.66;5044857;28;19965;-84
2021/01/05 06:08:35;;;;;;;;;;;;;;;-0.29;100.00;98993.59;5062704;28;19908;-85
2021/01/05 06:11:02;;;;;;;;;;;;;;;-0.14;100.00;98990.34;5047354;28;19923;-84
2021/01/05 06:13:27;;;;;;;;;;;;;;;-0.18;100.00;98989.50;5064666;28;19912;-85
2021/01/05 06:15:53;;;;;;;;;;;;;;;-0.22;100.00;98988.59;5033811;28;20333;-84
2021/01/05 06:18:18;;;;;;;;;;;;;;;-0.09;100.00;98999.72;5028221;28;19953;-85
2021/01/05 06:20:44;;;;;;;;;;;;;;;-0.18;100.00;98994.56;5060100;28;19913;-85
2021/01/05 06:23:09;;;;;;;;;;;;;;;-0.26;100.00;98993.59;5047472;28;19916;-85
2021/01/05 06:25:34;;;;;;;;;;;;;;;-0.08;100.00;98986.22;5046983;28;20282;-86
2021/01/05 06:27:59;;;;;;;;;;;;;;;-0.16;100.00;98990.38;5045412;28;21158;-84
2021/01/05 06:30:25;;;;;;;;;;;;;;;-0.25;100.00;99003.75;5032413;28;19904;-85
2021/01/05 06:32:50;;;;;;;;;;;;;;;-0.32;100.00;99011.25;5057743;28;19950;-84
2021/01/05 06:35:17;;;;;;;;;;;;;;;-0.27;100.00;99004.56;5063447;28;19935;-85
2021/01/05 06:37:42;;;;;;;;;;;;;;;-0.35;100.00;99003.63;5039608;28;20064;-84
2021/01/05 06:40:08;;;;;;;;;;;;;;;-0.44;100.00;99012.78;5046640;28;20597;-85
2021/01/05 06:42:33;;;;;;;;;;;;;;;-0.48;100.00;99006.03;5047265;28;19909;-84
2021/01/05 06:44:59;;;;;;;;;;;;;;;-0.45;100.00;99001.00;5043373;28;20374;-84
2021/01/05 06:47:24;;;;;;;;;;;;;;;-0.31;100.00;99012.97;5027918;28;19970;-84
2021/01/05 06:49:49;;;;;;;;;;;;;;;-0.39;100.00;99012.00;5045605;28;20358;-85
2021/01/05 06:52:15;;;;;;;;;;;;;;;-0.29;100.00;99011.28;5063307;28;20575;-84
2021/01/05 06:54:40;;;;;;;;;;;;;;;-0.38;100.00;99011.19;5056220;28;19913;-84
2021/01/05 06:57:05;;;;;;;;;;;;;;;-0.28;100.00;99007.91;5035597;28;19904;-85
2021/01/05 06:59:31;;;;;;;;;;;;;;;-0.35;100.00;99008.69;5046088;28;19913;-84
2021/01/05 07:01:56;;;;;;;;;;;;;;;-0.36;100.00;99007.84;5047212;28;19915;-85
2021/01/05 07:04:22;;;;;;;;;;;;;;;-0.35;100.00;99012.06;5063291;28;19954;-84
2021/01/05 07:06:47;;;;;;;;;;;;;;;-0.25;100.00;99007.94;5047043;28;20502;-84
2021/01/05 07:09:13;;;;;;;;;;;;;;;-0.40;100.00;99012.84;5047181;28;19953;-85
2021/01/05 07:11:38;;;;;;;;;;;;;;;-0.22;100.00;99013.06;5047693;28;19936;-85
2021/01/05 07:14:04;;;;;;;;;;;;;;;-0.29;100.00;99011.28;5047323;28;20540;-84
2021/01/05 07:16:29;;;;;;;;;;;;;;;-0.29;100.00;99016.34;5048076;28;19904;-85
2021/01/05 07:18:54;;;;;;;;;;;;;;;-0.31;100.00;99018.03;5049563;28;20331;-84
2021/01/05 07:21:20;;;;;;;;;;;;;;;-0.34;100.00;99017.97;5047650;28;19931;-84
2021/01/05 07:23:45;;;;;;;;;;;;;;;-0.33;100.00;99012.94;5047422;28;19904;-84
2021/01/05 07:26:10;;;;;;;;;;;;;;;-0.34;100.00;99021.38;5057495;28;20449;-83
2021/01/05 07:28:38;;;;;;;;;;;;;;;-0.31;100.00;99018.03;5043088;28;19998;-83
2021/01/05 07:31:03;;;;;;;;;;;;;;;-0.26;100.00;99021.44;5040791;28;19991;-83
2021/01/05 07:33:29;;;;;;;;;;;;;;;-0.22;100.00;99023.19;5042078;28;20026;-83
2021/01/05 07:35:54;;;;;;;;;;;;;;;-0.20;100.00;99019.00;5050665;28;19995;-83
2021/01/05 07:38:19;;;;;;;;;;;;;;;-0.31;100.00;99023.09;5039249;28;19908;-83
2021/01/05 07:40:44;;;;;;;;;;;;;;;-0.42;100.00;99025.47;5044991;28;19913;-84
2021/01/05 07:43:10;;;;;;;;;;;;;;;-0.33;100.00;99027.28;5038565;28;20003;-84
2021/01/05 07:45:35;;;;;;;;;;;;;;;-0.44;100.00;99033.03;5031346;28;19904;-84
2021/01/05 07:48:01;;;;;;;;;;;;;;;-0.32;100.00;99027.31;5049963;28;19961;-83
2021/01/05 07:50:26;;;;;;;;;;;;;;;-0.35;100.00;99027.25;5032486;28;19996;-83
2021/01/05 07:52:52;;;;;;;;;;;;;;;-0.38;100.00;99022.16;5049962;28;19989;-84
2021/01/05 07:55:24;;;;;;;;;;;;;;;-0.39;100.00;99024.66;5040524;28;20981;-84
2021/01/05 07:57:49;;;;;;;;;;;;;;;-0.40;100.00;99028.03;5039624;28;19954;-83
2021/01/05 08:00:16;;;;;;;;;;;;;;;-0.44;100.00;99032.19;5048966;28;19952;-84
2021/01/05 08:02:41;;;;;;;;;;;;;;;-0.36;100.00;99024.72;5049535;28;19915;-84
2021/01/05 08:05:07;;;;;;;;;;;;;;;-0.53;100.00;99022.78;5039533;28;19904;-84
2021/01/05 08:07:33;;;;;;;;;;;;;;;-0.49;100.00;99032.13;5049922;28;19909;-84
2021/01/05 08:09:58;;;;;;;;;;;;;;;-0.45;100.00;99028.81;5039811;28;19914;-83
2021/01/05 08:12:24;;;;;;;;;;;;;;;-0.39;100.00;99034.78;5042946;28;19916;-83
2021/01/05 08:14:49;;;;;;;;;;;;;;;-0.41;100.00;99037.31;5035938;28;19958;-83
2021/01/05 08:17:15;;;;;;;;;;;;;;;-0.39;100.00;99042.38;5034677;28;20224;-83
2021/01/05 08:19:44;;;;;;;;;;;;;;;-0.30;100.00;99037.41;5039626;28;19943;-83
2021/01/05 08:22:09;;;;;;;;;;;;;;;-0.34;100.00;99044.13;5050574;28;20085;-83
2021/01/05 08:24:35;;;;;;;;;;;;;;;-0.31;100.00;99045.84;5048116;28;19908;-83
2021/01/05 08:27:00;;;;;;;;;;;;;;;-0.35;100.00;99056.75;5053937;28;19908;-83
2021/01/05 08:29:25;;;;;;;;;;;;;;;-0.51;100.00;99053.19;5041714;28;20636;-83
2021/01/05 08:31:51;;;;;;;;;;;;;;;-0.29;100.00;99046.72;5039234;28;19940;-82
2021/01/05 08:34:16;;;;;;;;;;;;;;;-0.27;100.00;99050.13;5041920;28;19912;-83
2021/01/05 08:36:42;;;;;;;;;;;;;;;-0.43;100.00;99055.00;5041239;28;19912;-82
2021/01/05 08:39:10;;;;;;;;;;;;;;;-0.50;100.00;99063.34;5047474;28;19920;-83
2021/01/05 08:41:35;;;;;;;;;;;;;;;-0.42;100.00;99061.72;5052163;28;19964;-83
2021/01/05 08:44:01;;;;;;;;;;;;;;;-0.30;100.00;99052.59;5049591;28;20000;-83
2021/01/05 08:46:27;;;;;;;;;;;;;;;-0.38;100.00;99051.69;5051209;28;19923;-83
2021/01/05 08:48:53;;;;;;;;;;;;;;;-0.43;100.00;99055.00;5047062;28;19922;-83
2021/01/05 08:51:19;;;;;;;;;;;;;;;-0.30;100.00;99050.06;5049292;28;19920;-82
2021/01/05 08:53:48;;;;;;;;;;;;;;;-0.25;100.00;99043.38;5044101;28;19916;-83
2021/01/05 08:56:21;;;;;;;;;;;;;;;-0.12;100.00;99055.34;5048640;28;20339;-82
2021/01/05 08:58:46;;;;;;;;;;;;;;;-0.21;100.00;99055.25;5049949;28;19927;-83
2021/01/05 09:01:12;;;;;;;;;;;;;;;-0.24;100.00;99060.28;5063037;28;19916;-83
2021/01/05 09:03:38;;;;;;;;;;;;;;;-0.19;100.00;99053.59;5045412;28;19916;-83
2021/01/05 09:06:03;;;;;;;;;;;;;;;-0.38;100.00;99057.56;5047009;28;19917;-82
2021/01/05 09:08:31;;;;;;;;;;;;;;;-0.44;100.00;99063.38;5061697;28;19916;-82
2021/01/05 09:10:58;;;;;;;;;;;;;;;-0.11;100.00;99056.22;5056093;28;20392;-82
2021/01/05 09:13:24;;;;;;;;;;;;;;;-0.39;100.00;99070.19;5046590;28;19926;-83
2021/01/05 09:15:50;;;;;;;;;;;;;;;-0.25;100.00;99068.69;5049118;28;19963;-83
2021/01/05 09:18:15;;;;;;;;;;;;;;;-0.38;100.00;99065.16;5053836;28;20266;-82
2021/01/05 09:20:41;;;;;;;;;;;;;;;-0.45;100.00;99063.38;5046768;28;19924;-83
2021/01/05 09:23:06;;;;;;;;;;;;;;;-0.37;100.00;99058.41;5038570;28;19920;-83
2021/01/05 09:25:31;;;;;;;;;;;;;;;-0.39;100.00;99060.06;5048284;28;19923;-83
2021/01/05 09:27:57;;;;;;;;;;;;;;;-0.37;100.00;99060.94;5047812;28;20051;-83
2021/01/05 09:30:22;;;;;;;;;;;;;;;-0.34;100.00;99063.50;5055150;28;19968;-83
2021/01/05 09:42:52;;;;;;;;;;;;;;;-0.37;100.00;99073.59;4983796;28;19925;-82
2021/01/05 09:45:31;;;;;;;;;;;;;;;-0.30;100.00;99066.09;4977935;28;19914;-82
2021/01/05 09:48:15;;;;;;;;;;;;;;;-0.33;100.00;99075.34;4978809;28;19914;-83
2021/01/05 09:50:41;;;;;;;;;;;;;;;-0.37;100.00;99073.59;4985777;28;19964;-82
2021/01/05 09:53:07;;;;;;;;;;;;;;;-0.26;100.00;99065.31;5034744;28;19912;-83
2021/01/05 09:56:03;;;;;;;;;;;;;;;-0.38;100.00;99069.38;5055609;28;19923;-83
2021/01/05 09:58:47;;;;;;;;;;;;;;;-0.23;100.00;99070.44;5057861;28;19923;-83
2021/01/05 10:01:37;;;;;;;;;;;;;;;-0.29;100.00;99066.97;5075547;28;20403;-83
2021/01/05 10:04:03;;;;;;;;;;;;;;;-0.16;100.00;99058.69;5078170;28;20369;-83
2021/01/05 10:06:32;;;;;;;;;;;;;;;-0.18;100.00;99059.50;5050552;28;19926;-82
2021/01/05 10:08:58;;;;;;;;;;;;;;;-0.19;100.00;99057.81;5059859;28;19944;-84
2021/01/05 10:11:29;;;;;;;;;;;;;;;-0.19;100.00;99061.19;5051953;28;19932;-82
2021/01/05 10:13:54;;;;;;;;;;;;;;;-0.32;100.00;99070.31;5042622;28;19939;-83
2021/01/05 10:16:20;;;;;;;;;;;;;;;-0.21;100.00;99060.31;5046801;28;19920;-83
2021/01/05 10:18:45;;;;;;;;;;;;;;;-0.17;100.00;99061.19;5029375;28;19939;-83
2021/01/05 10:21:10;;;;;;;;;;;;;;;-0.27;100.00;99057.72;5042227;28;19920;-83
2021/01/05 10:23:36;;;;;;;;;;;;;;;-0.27;100.00;99055.19;5042440;28;20516;-83
2021/01/05 10:26:02;;;;;;;;;;;;;;;-0.11;100.00;99057.06;5042735;28;20405;-83
2021/01/05 10:28:28;;;;;;;;;;;;;;;-0.08;100.00;99052.03;5034669;28;19912;-85
2021/01/05 10:30:53;;;;;;;;;;;;;;;-0.28;100.00;99048.41;5043233;28;19920;-84
2021/01/05 10:33:19;;;;;;;;;;;;;;;-0.10;100.00;99057.91;5031090;28;19921;-85
2021/01/05 10:35:44;;;;;;;;;;;;;;;-0.29;100.00;99060.22;5033095;28;19977;-84
2021/01/05 10:38:09;;;;;;;;;;;;;;;-0.34;100.00;99058.44;5044156;28;19969;-84
2021/01/05 10:40:35;;;;;;;;;;;;;;;-0.23;100.00;99056.91;5052372;28;19920;-85
2021/01/05 10:43:00;;;;;;;;;;;;;;;-0.18;100.00;99055.28;5053479;28;19919;-84
2021/01/05 10:45:27;;;;;;;;;;;;;;;-0.31;100.00;99053.44;5033240;28;19923;-84
2021/01/05 10:47:52;;;;;;;;;;;;;;;-0.44;100.00;99058.31;5033379;28;19916;-84
2021/01/05 10:50:18;;;;;;;;;;;;;;;-0.33;100.00;99052.56;5062085;28;20725;-83
2021/01/05 10:52:44;;;;;;;;;;;;;;;-0.30;100.00;99048.38;5032054;28;19920;-84
2021/01/05 10:55:10;;;;;;;;;;;;;;;-0.46;100.00;99049.91;5023713;28;19939;-83
2021/01/05 10:57:35;;;;;;;;;;;;;;;-0.24;100.00;99052.69;5029699;28;20741;-83
2021/01/05 11:00:01;;;;;;;;;;;;;;;-0.37;100.00;99045.78;5028364;28;20403;-83
2021/01/05 11:02:26;;;;;;;;;;;;;;;-0.36;100.00;99043.28;5042391;28;19916;-83
2021/01/05 11:04:52;;;;;;;;;;;;;;;-0.18;100.00;99040.13;5035807;28;19917;-85
2021/01/05 11:07:17;;;;;;;;;;;;;;;-0.24;100.00;99040.03;5030191;28;19970;-83
2021/01/05 11:09:43;;;;;;;;;;;;;;;-0.25;100.00;99045.91;5036913;28;19923;-86
2021/01/05 11:12:10;;;;;;;;;;;;;;;-0.17;100.00;99046.84;5043038;28;19985;-84
2021/01/05 11:14:36;;;;;;;;;;;;;;;-0.20;100.00;99051.91;5064747;28;19915;-83
2021/01/05 11:17:02;;;;;;;;;;;;;;;-0.08;100.00;99053.72;5040195;28;19916;-83
2021/01/05 11:19:27;;;;;;;;;;;;;;;-0.24;100.00;99048.47;5037446;28;20023;-83
2021/01/05 11:21:53;;;;;;;;;;;;;;;-0.29;100.00;99044.19;5050261;28;20002;-84
2021/01/05 11:24:19;;;;;;;;;;;;;;;-0.06;100.00;99041.94;5049681;28;19912;-85
2021/01/05 11:26:44;;;;;;;;;;;;;;;-0.18;100.00;99035.06;5050865;28;19923;-84
2021/01/05 11:29:11;;;;;;;;;;;;;;;-0.24;100.00;99024.84;5056924;28;19954;-84
2021/01/05 11:31:36;;;;;;;;;;;;;;;-0.12;100.00;99024.97;5061334;28;19999;-85
2021/01/05 11:34:02;;;;;;;;;;;;;;;-0.22;100.00;99028.25;5060656;28;19928;-85
2021/01/05 11:36:28;;;;;;;;;;;;;;;-0.14;100.00;99023.25;5048235;28;20397;-83
2021/01/05 11:38:53;;;;;;;;;;;;;;;-0.25;100.00;99020.59;5038644;28;19920;-85
2021/01/05 11:41:29;;;;;;;;;;;;;;;-0.30;100.00;99018.00;5051583;28;20662;-84
2021/01/05 11:43:55;;;;;;;;;;;;;;;-0.28;100.00;99011.28;5061179;28;19920;-84
2021/01/05 11:46:20;;;;;;;;;;;;;;;-0.19;100.00;99002.97;5051396;28;19916;-84
2021/01/05 11:48:46;;;;;;;;;;;;;;;-0.16;100.00;99000.50;5059213;28;19959;-83
2021/01/05 11:51:15;;;;;;;;;;;;;;;-0.13;100.00;99008.09;5057123;28;20031;-84
2021/01/05 11:53:41;;;;;;;;;;;;;;;-0.18;100.00;99004.69;5043819;28;20377;-84
2021/01/05 11:56:06;;;;;;;;;;;;;;;-0.13;100.00;98997.13;5034998;28;19924;-84
2021/01/05 11:58:33;;;;;;;;;;;;;;;-0.22;100.00;99005.47;5047735;28;19959;-84
2021/01/05 12:00:58;;;;;;;;;;;;;;;-0.07;100.00;99000.59;5047233;28;19928;-84
2021/01/05 12:04:02;;;;;;;;;;;;;;;-0.02;100.00;98993.88;5037524;28;19916;-84
2021/01/05 12:06:27;;;;;;;;;;;;;;;-0.06;100.00;98998.91;5046893;28;19920;-84
2021/01/05 12:08:53;;;;;;;;;;;;;;;0.05;100.00;98991.41;5053542;28;19970;-85
2021/01/05 12:11:22;;;;;;;;;;;;;;;-0.04;100.00;99000.59;5045366;28;20421;-85
2021/01/05 12:13:47;;;;;;;;;;;;;;;0.07;100.00;98994.78;5051968;28;19923;-84
2021/01/05 12:16:23;;;;;;;;;;;;;;;0.23;100.00;98991.59;5053502;28;19915;-85
2021/01/05 12:18:48;;;;;;;;;;;;;;;-0.06;100.00;98994.69;5056234;28;20366;-84
2021/01/05 12:21:20;;;;;;;;;;;;;;;-0.13;100.00;98989.53;5054368;28;19923;-84
2021/01/05 12:23:45;;;;;;;;;;;;;;;0.20;100.00;98991.53;5064783;28;20000;-85
2021/01/05 12:26:11;;;;;;;;;;;;;;;0.20;100.00;98986.47;5048174;28;20034;-84
2021/01/05 12:28:36;;;;;;;;;;;;;;;0.07;100.00;98990.59;5046022;28;19960;-85
2021/01/05 12:31:01;;;;;;;;;;;;;;;0.01;100.00;98980.41;5051714;28;20558;-84
2021/01/05 12:33:27;;;;;;;;;;;;;;;-0.10;100.00;98990.41;5043706;28;20356;-85
2021/01/05 12:35:53;;;;;;;;;;;;;;;0.03;100.00;98988.03;5060488;28;20579;-84
2021/01/05 12:38:18;;;;;;;;;;;;;;;0.07;100.00;98982.13;5076707;28;20412;-84
2021/01/05 12:43:47;;;;;;;;;;;;;;;-0.05;100.00;98991.28;5075126;28;19928;-85
2021/01/05 12:49:59;;;;;;;;;;;;;;;0.23;100.00;98981.47;5035392;28;20817;-84
2021/01/05 13:31:14;;;;;;;;;;;;;;;0.06;100.00;98993.09;5071160;28;19958;-84
2021/01/05 13:34:39;;;;;;;;;;;;;;;0.09;100.00;98993.13;5072688;28;20363;-84
2021/01/05 13:37:21;;;;;;;;;;;;;;;0.13;100.00;98999.94;5077139;28;20448;-84
2021/01/05 13:39:47;;;;;;;;;;;;;;;0.09;100.00;98998.19;5044796;28;19916;-84